Time;durP1;ratioP1;P1;durP2;ratioP2;P2;SDS_P1;SDS_P2;PMS_P1;PMS_P2;Temp;Humidity;BMP_temperature;BMP_pressure;BME280_temperature;BME280_humidity;BME280_pressure;Samples;Min_cycle;Max_cycle;Signal;HPM_P1;HPM_P2
2020/12/21 00:02:48;;;;;;;11.87;1.43;;;;;;;;;;5603028;23;20111;-82
2020/12/21 00:05:14;;;;;;;10.17;1.83;;;;;;;;;;5295197;23;21159;-82
2020/12/21 00:10:16;;;;;;;8.87;2.10;;;;;;;;;;5429632;23;20075;-80
2020/12/21 00:15:46;;;;;;;7.77;1.70;;;;;;;;;;5575892;23;20030;-83
2020/12/21 00:20:48;;;;;;;7.80;2.17;;;;;;;;;;5112844;23;20040;-83
2020/12/21 00:23:14;;;;;;;10.83;1.53;;;;;;;;;;4953590;29;20087;-84
2020/12/21 00:25:40;;;;;;;12.10;2.37;;;;;;;;;;4954892;29;20031;-84
2020/12/21 00:28:06;;;;;;;12.77;2.00;;;;;;;;;;4954237;29;20022;-82
2020/12/21 00:30:32;;;;;;;9.47;2.53;;;;;;;;;;4954642;29;20030;-82
2020/12/21 00:32:58;;;;;;;10.43;2.23;;;;;;;;;;4958055;29;20043;-81
2020/12/21 00:35:24;;;;;;;5.97;1.80;;;;;;;;;;4960142;29;20043;-82
2020/12/21 00:37:50;;;;;;;9.80;2.43;;;;;;;;;;4958913;29;20035;-82
2020/12/21 00:40:18;;;;;;;11.50;1.60;;;;;;;;;;4959441;29;20055;-81
2020/12/21 00:42:45;;;;;;;11.83;3.00;;;;;;;;;;4960596;29;20008;-82
2020/12/21 00:45:11;;;;;;;7.37;1.57;;;;;;;;;;4960276;29;20038;-81
2020/12/21 00:47:37;;;;;;;12.73;2.07;;;;;;;;;;4958404;29;20027;-82
2020/12/21 00:50:04;;;;;;;11.30;1.83;;;;;;;;;;4959645;29;20027;-81
2020/12/21 00:52:30;;;;;;;15.53;2.70;;;;;;;;;;4958751;29;20028;-83
2020/12/21 00:54:57;;;;;;;7.33;2.30;;;;;;;;;;4954895;29;20043;-83
2020/12/21 00:57:23;;;;;;;7.77;1.97;;;;;;;;;;4953211;29;20051;-83
2020/12/21 00:59:49;;;;;;;10.87;2.07;;;;;;;;;;4955376;29;20386;-83
2020/12/21 01:02:15;;;;;;;8.53;2.33;;;;;;;;;;4955560;29;20036;-82
2020/12/21 01:04:41;;;;;;;12.37;2.57;;;;;;;;;;4957115;29;20059;-83
2020/12/21 01:07:07;;;;;;;16.47;2.90;;;;;;;;;;4958164;29;20016;-82
2020/12/21 01:09:33;;;;;;;15.43;3.20;;;;;;;;;;4957928;29;20123;-82
2020/12/21 01:11:59;;;;;;;11.50;2.57;;;;;;;;;;4954368;29;20031;-83
2020/12/21 01:14:26;;;;;;;12.67;3.30;;;;;;;;;;4953693;29;20059;-82
2020/12/21 01:16:53;;;;;;;17.47;3.23;;;;;;;;;;4953798;29;20032;-82
2020/12/21 01:19:19;;;;;;;14.00;2.90;;;;;;;;;;4955388;29;20075;-82
2020/12/21 01:21:45;;;;;;;14.40;3.03;;;;;;;;;;4957041;29;20036;-83
2020/12/21 01:24:12;;;;;;;13.97;3.13;;;;;;;;;;4956399;29;20028;-84
2020/12/21 01:26:38;;;;;;;11.33;2.97;;;;;;;;;;4956979;29;20032;-83
2020/12/21 01:29:04;;;;;;;14.77;3.67;;;;;;;;;;4955475;29;20028;-82
2020/12/21 01:31:30;;;;;;;11.83;3.73;;;;;;;;;;4957009;29;20028;-83
2020/12/21 01:33:56;;;;;;;17.23;4.87;;;;;;;;;;4956636;29;20066;-83
2020/12/21 01:36:22;;;;;;;10.07;3.50;;;;;;;;;;4957840;29;20052;-83
2020/12/21 01:38:48;;;;;;;15.83;4.17;;;;;;;;;;4956199;29;20011;-83
2020/12/21 01:41:14;;;;;;;19.63;3.87;;;;;;;;;;4958557;29;20083;-83
2020/12/21 01:43:41;;;;;;;14.37;3.57;;;;;;;;;;4959229;29;20024;-84
2020/12/21 01:46:08;;;;;;;17.43;4.33;;;;;;;;;;4960983;29;20048;-83
2020/12/21 01:48:34;;;;;;;18.27;3.90;;;;;;;;;;4962612;29;20075;-80
2020/12/21 01:53:37;;;;;;;20.67;5.00;;;;;;;;;;5800442;23;20043;-84
2020/12/21 01:56:04;;;;;;;16.57;3.77;;;;;;;;;;4980404;28;20036;-83
2020/12/21 01:58:30;;;;;;;20.00;5.03;;;;;;;;;;5046944;23;20047;-82
2020/12/21 02:03:32;;;;;;;14.40;4.87;;;;;;;;;;5639549;23;20468;-83
2020/12/21 02:05:58;;;;;;;23.67;4.70;;;;;;;;;;4963822;29;20012;-83
2020/12/21 02:08:25;;;;;;;22.37;5.00;;;;;;;;;;4960750;29;20003;-82
2020/12/21 02:10:51;;;;;;;16.03;5.13;;;;;;;;;;4942970;29;20032;-83
2020/12/21 02:13:17;;;;;;;20.83;4.93;;;;;;;;;;4959652;29;20100;-83
2020/12/21 02:15:43;;;;;;;16.73;5.50;;;;;;;;;;4959406;29;20032;-83
2020/12/21 02:18:09;;;;;;;25.67;5.30;;;;;;;;;;4961605;29;20137;-83
2020/12/21 02:20:36;;;;;;;14.57;4.83;;;;;;;;;;4961047;29;20037;-83
2020/12/21 02:23:02;;;;;;;13.13;4.90;;;;;;;;;;4947298;29;20083;-83
2020/12/21 02:25:28;;;;;;;17.03;4.80;;;;;;;;;;4963446;29;20024;-83
2020/12/21 02:27:54;;;;;;;17.57;5.20;;;;;;;;;;4962901;29;20016;-84
2020/12/21 02:30:20;;;;;;;23.17;5.70;;;;;;;;;;4962559;29;20012;-84
2020/12/21 02:32:47;;;;;;;19.70;5.37;;;;;;;;;;4963113;29;20038;-83
2020/12/21 02:35:13;;;;;;;20.57;4.33;;;;;;;;;;4962651;29;20020;-83
2020/12/21 02:37:39;;;;;;;19.50;4.33;;;;;;;;;;5088352;23;20068;-83
2020/12/21 02:40:06;;;;;;;16.17;4.57;;;;;;;;;;4960882;29;20039;-84
2020/12/21 02:42:33;;;;;;;18.60;4.87;;;;;;;;;;4960812;29;20042;-83
2020/12/21 02:44:59;;;;;;;16.50;4.90;;;;;;;;;;4959771;29;20016;-82
2020/12/21 02:47:25;;;;;;;18.53;4.90;;;;;;;;;;4960564;29;20043;-83
2020/12/21 02:49:51;;;;;;;26.70;5.10;;;;;;;;;;4959523;29;20022;-82
2020/12/21 02:52:17;;;;;;;12.63;3.77;;;;;;;;;;4960744;29;20022;-83
2020/12/21 02:54:44;;;;;;;19.77;5.37;;;;;;;;;;4961297;29;20095;-83
2020/12/21 02:57:10;;;;;;;15.10;3.57;;;;;;;;;;4961854;29;20015;-84
2020/12/21 02:59:36;;;;;;;20.80;4.60;;;;;;;;;;4962601;29;20049;-83
2020/12/21 03:02:03;;;;;;;15.53;4.97;;;;;;;;;;4962252;29;20019;-83
2020/12/21 03:04:29;;;;;;;17.40;4.33;;;;;;;;;;4961709;29;20032;-84
2020/12/21 03:06:55;;;;;;;10.87;4.27;;;;;;;;;;4960262;29;20020;-83
2020/12/21 03:09:21;;;;;;;23.73;5.47;;;;;;;;;;4960272;29;20023;-83
2020/12/21 03:11:47;;;;;;;17.60;3.80;;;;;;;;;;4961272;29;20019;-83
2020/12/21 03:14:14;;;;;;;17.23;4.67;;;;;;;;;;4962469;29;20012;-84
2020/12/21 03:16:40;;;;;;;23.93;6.70;;;;;;;;;;4961815;29;20016;-83
2020/12/21 03:19:09;;;;;;;19.83;4.60;;;;;;;;;;4961822;29;20008;-85
2020/12/21 03:21:35;;;;;;;18.67;4.67;;;;;;;;;;4961622;29;20039;-83
2020/12/21 03:24:02;;;;;;;19.67;3.53;;;;;;;;;;4961560;29;20032;-83
2020/12/21 03:26:28;;;;;;;19.07;6.13;;;;;;;;;;4944676;29;20043;-83
2020/12/21 03:28:54;;;;;;;24.63;4.53;;;;;;;;;;4961039;29;20023;-84
2020/12/21 03:31:20;;;;;;;14.70;4.57;;;;;;;;;;5519689;23;20056;-82
2020/12/21 03:33:46;;;;;;;22.57;4.30;;;;;;;;;;4961688;29;20027;-83
2020/12/21 03:36:12;;;;;;;24.17;4.80;;;;;;;;;;4959825;29;20052;-82
2020/12/21 03:38:38;;;;;;;20.03;5.50;;;;;;;;;;4959550;29;20038;-83
2020/12/21 03:41:05;;;;;;;25.80;5.03;;;;;;;;;;4960516;29;20022;-84
2020/12/21 03:43:31;;;;;;;22.47;4.70;;;;;;;;;;4960922;29;20039;-84
2020/12/21 03:45:57;;;;;;;18.40;5.43;;;;;;;;;;4960897;29;20026;-83
2020/12/21 03:48:23;;;;;;;21.80;4.77;;;;;;;;;;4961080;29;20036;-83
2020/12/21 03:50:49;;;;;;;20.63;5.07;;;;;;;;;;4961674;29;20055;-84
2020/12/21 03:55:51;;;;;;;14.70;4.70;;;;;;;;;;4977384;23;20047;-83
2020/12/21 03:58:17;;;;;;;23.67;5.10;;;;;;;;;;4960207;29;20024;-83
2020/12/21 04:00:43;;;;;;;23.03;5.80;;;;;;;;;;4960477;29;20028;-83
2020/12/21 04:03:09;;;;;;;18.70;4.40;;;;;;;;;;4961155;29;20019;-83
2020/12/21 04:08:11;;;;;;;18.00;4.20;;;;;;;;;;4959073;23;19914;-83
2020/12/21 04:10:38;;;;;;;17.70;4.30;;;;;;;;;;4959529;29;20015;-84
2020/12/21 04:13:04;;;;;;;22.97;4.67;;;;;;;;;;4960922;29;20052;-83
2020/12/21 04:15:30;;;;;;;19.90;3.87;;;;;;;;;;4961125;29;20028;-84
2020/12/21 04:17:57;;;;;;;14.23;4.33;;;;;;;;;;4959949;29;20035;-84
2020/12/21 04:20:23;;;;;;;22.73;4.30;;;;;;;;;;4960970;29;20071;-84
2020/12/21 04:22:49;;;;;;;16.13;4.20;;;;;;;;;;4959001;29;20035;-83
2020/12/21 04:25:15;;;;;;;21.07;4.77;;;;;;;;;;4957704;29;20023;-83
2020/12/21 04:27:41;;;;;;;37.73;6.97;;;;;;;;;;4943307;29;20028;-83
2020/12/21 04:30:07;;;;;;;20.90;4.67;;;;;;;;;;4959801;29;20032;-84
2020/12/21 04:32:34;;;;;;;24.00;4.57;;;;;;;;;;4960524;29;20032;-83
2020/12/21 04:35:00;;;;;;;24.93;5.37;;;;;;;;;;4958799;29;20032;-82
2020/12/21 04:37:26;;;;;;;22.07;5.63;;;;;;;;;;4959223;29;20023;-83
2020/12/21 04:39:52;;;;;;;15.27;3.80;;;;;;;;;;4959830;29;20026;-83
2020/12/21 04:42:18;;;;;;;23.20;4.77;;;;;;;;;;4957183;29;20028;-83
2020/12/21 04:44:44;;;;;;;17.33;4.00;;;;;;;;;;4958192;29;20018;-83
2020/12/21 04:47:11;;;;;;;15.53;4.07;;;;;;;;;;4958855;29;20031;-83
2020/12/21 04:49:37;;;;;;;18.17;4.60;;;;;;;;;;4958728;29;20047;-84
2020/12/21 04:52:06;;;;;;;24.20;4.70;;;;;;;;;;4959225;29;20016;-86
2020/12/21 04:54:32;;;;;;;16.73;3.83;;;;;;;;;;4960763;29;20012;-83
2020/12/21 04:56:59;;;;;;;17.53;3.77;;;;;;;;;;4960414;29;20020;-83
2020/12/21 04:59:25;;;;;;;14.37;3.87;;;;;;;;;;4960413;29;20044;-84
2020/12/21 05:01:54;;;;;;;19.27;4.17;;;;;;;;;;4960454;29;20020;-84
2020/12/21 05:04:21;;;;;;;25.50;3.83;;;;;;;;;;5938761;23;20040;-84
2020/12/21 05:06:53;;;;;;;13.97;4.27;;;;;;;;;;4959642;29;20084;-84
2020/12/21 05:09:26;;;;;;;17.87;4.40;;;;;;;;;;4961029;29;20019;-83
2020/12/21 05:11:56;;;;;;;18.43;4.00;;;;;;;;;;4960392;29;20016;-84
2020/12/21 05:14:33;;;;;;;17.33;4.10;;;;;;;;;;5009852;23;20043;-82
2020/12/21 05:17:13;;;;;;;20.97;4.20;;;;;;;;;;4941363;29;20044;-83
2020/12/21 05:19:39;;;;;;;19.83;3.60;;;;;;;;;;4943762;29;20039;-82
2020/12/21 05:22:18;;;;;;;14.63;4.13;;;;;;;;;;4945187;29;20032;-83
2020/12/21 05:24:44;;;;;;;23.73;5.03;;;;;;;;;;4944719;29;20012;-84
2020/12/21 05:27:17;;;;;;;20.07;6.77;;;;;;;;;;4945009;29;20019;-83
2020/12/21 05:29:53;;;;;;;13.77;4.27;;;;;;;;;;4944459;29;20028;-84
2020/12/21 05:32:20;;;;;;;18.80;4.60;;;;;;;;;;4943680;29;20047;-84
2020/12/21 05:34:46;;;;;;;26.37;4.13;;;;;;;;;;4943100;29;20043;-85
2020/12/21 05:37:19;;;;;;;17.23;3.93;;;;;;;;;;4943116;29;20113;-84
2020/12/21 05:39:55;;;;;;;18.83;4.60;;;;;;;;;;4942967;29;20013;-82
2020/12/21 05:42:23;;;;;;;19.67;4.10;;;;;;;;;;4942722;29;20012;-83
2020/12/21 05:44:56;;;;;;;15.50;4.10;;;;;;;;;;4943316;29;20099;-83
2020/12/21 05:47:23;;;;;;;35.97;7.03;;;;;;;;;;4943601;29;20148;-83
2020/12/21 05:49:54;;;;;;;24.20;5.10;;;;;;;;;;4942934;29;20008;-84
2020/12/21 05:52:34;;;;;;;17.20;4.60;;;;;;;;;;4942473;29;20024;-84
2020/12/21 05:55:02;;;;;;;21.73;5.87;;;;;;;;;;4942168;29;20036;-84
2020/12/21 05:57:30;;;;;;;20.27;5.20;;;;;;;;;;4943145;29;20020;-85
2020/12/21 05:59:58;;;;;;;11.70;4.93;;;;;;;;;;4943952;29;20067;-84
2020/12/21 06:02:25;;;;;;;16.30;4.17;;;;;;;;;;4944864;29;20040;-84
2020/12/21 06:04:58;;;;;;;20.27;4.63;;;;;;;;;;4944343;29;20009;-85
2020/12/21 06:07:27;;;;;;;18.47;5.47;;;;;;;;;;4943418;29;20096;-83
2020/12/21 06:09:56;;;;;;;13.93;4.10;;;;;;;;;;4943917;29;20024;-85
2020/12/21 06:12:23;;;;;;;19.23;4.33;;;;;;;;;;4943944;29;20020;-84
2020/12/21 06:14:51;;;;;;;18.97;5.37;;;;;;;;;;4941979;29;20051;-84
2020/12/21 06:17:17;;;;;;;15.80;5.20;;;;;;;;;;4942227;29;20015;-84
2020/12/21 06:19:43;;;;;;;27.00;6.80;;;;;;;;;;4941528;29;20028;-84
2020/12/21 06:22:09;;;;;;;18.63;5.30;;;;;;;;;;4941993;29;20035;-84
2020/12/21 06:24:39;;;;;;;24.47;6.70;;;;;;;;;;4942462;29;20024;-84
2020/12/21 06:27:15;;;;;;;16.57;5.60;;;;;;;;;;4941874;29;20026;-84
2020/12/21 06:29:41;;;;;;;21.17;6.47;;;;;;;;;;4940163;29;20470;-84
2020/12/21 06:32:09;;;;;;;28.63;7.13;;;;;;;;;;4941895;29;20036;-85
2020/12/21 06:34:36;;;;;;;14.93;5.73;;;;;;;;;;4942060;29;20063;-82
2020/12/21 06:37:12;;;;;;;16.07;6.73;;;;;;;;;;4941474;29;20032;-83
2020/12/21 06:39:39;;;;;;;18.73;5.37;;;;;;;;;;4942831;29;20032;-83
2020/12/21 06:42:10;;;;;;;17.40;6.73;;;;;;;;;;4943116;29;20012;-83
2020/12/21 06:44:38;;;;;;;32.33;7.60;;;;;;;;;;4943541;29;20083;-83
2020/12/21 06:47:05;;;;;;;13.97;5.83;;;;;;;;;;4942398;29;20022;-85
2020/12/21 06:49:33;;;;;;;16.23;5.57;;;;;;;;;;4942672;29;20075;-84
2020/12/21 06:51:59;;;;;;;17.73;5.47;;;;;;;;;;4927562;29;20024;-84
2020/12/21 06:54:26;;;;;;;13.53;4.80;;;;;;;;;;4943096;29;20088;-84
2020/12/21 06:56:52;;;;;;;18.10;4.93;;;;;;;;;;4942140;29;20012;-84
2020/12/21 06:59:23;;;;;;;23.40;6.40;;;;;;;;;;4942220;29;20028;-84
2020/12/21 07:01:50;;;;;;;16.83;5.87;;;;;;;;;;4941006;29;20047;-84
2020/12/21 07:04:17;;;;;;;21.97;6.00;;;;;;;;;;4941357;29;20040;-84
2020/12/21 07:06:45;;;;;;;18.67;6.53;;;;;;;;;;4941731;29;20039;-85
2020/12/21 07:09:12;;;;;;;17.30;5.90;;;;;;;;;;4940108;29;20035;-83
2020/12/21 07:11:39;;;;;;;17.40;5.87;;;;;;;;;;4941988;29;20039;-84
2020/12/21 07:14:05;;;;;;;19.50;6.00;;;;;;;;;;4941087;29;20026;-84
2020/12/21 07:16:31;;;;;;;20.73;5.07;;;;;;;;;;4939089;29;20059;-83
2020/12/21 07:18:57;;;;;;;21.80;7.50;;;;;;;;;;4939849;29;20063;-84
2020/12/21 07:21:23;;;;;;;24.23;6.47;;;;;;;;;;4942277;29;20047;-84
2020/12/21 07:23:49;;;;;;;17.70;5.67;;;;;;;;;;4943104;29;20016;-83
2020/12/21 07:26:16;;;;;;;19.63;6.47;;;;;;;;;;4941195;29;20020;-85
2020/12/21 07:28:46;;;;;;;17.23;4.40;;;;;;;;;;4940850;29;20032;-82
2020/12/21 07:31:13;;;;;;;22.27;6.23;;;;;;;;;;4941134;29;20032;-85
2020/12/21 07:33:53;;;;;;;31.10;8.77;;;;;;;;;;4941458;29;20028;-85
2020/12/21 07:36:20;;;;;;;22.33;7.43;;;;;;;;;;4941437;29;20040;-85
2020/12/21 07:38:46;;;;;;;23.97;7.93;;;;;;;;;;4938953;29;20028;-84
2020/12/21 07:41:12;;;;;;;28.77;8.23;;;;;;;;;;4938343;29;20039;-84
2020/12/21 07:43:42;;;;;;;33.67;11.37;;;;;;;;;;4941237;29;20037;-84
2020/12/21 07:46:19;;;;;;;27.20;9.77;;;;;;;;;;5173275;23;20039;-82
2020/12/21 07:48:46;;;;;;;30.10;9.60;;;;;;;;;;4960491;28;20012;-84
2020/12/21 07:51:13;;;;;;;26.90;7.70;;;;;;;;;;4960982;28;20020;-86
2020/12/21 07:53:43;;;;;;;31.27;8.33;;;;;;;;;;4961295;28;20028;-84
2020/12/21 07:58:48;;;;;;;23.80;8.13;;;;;;;;;;5678278;23;20035;-84
2020/12/21 08:01:23;;;;;;;28.77;8.97;;;;;;;;;;4981023;28;20031;-85
2020/12/21 08:06:25;;;;;;;23.43;7.63;;;;;;;;;;5487346;23;20043;-85
2020/12/21 08:08:52;;;;;;;27.20;7.63;;;;;;;;;;4960824;29;20052;-85
2020/12/21 08:11:19;;;;;;;24.27;7.97;;;;;;;;;;4960910;29;20011;-83
2020/12/21 08:13:48;;;;;;;26.77;7.30;;;;;;;;;;4957945;29;20039;-84
2020/12/21 08:16:14;;;;;;;23.83;9.20;;;;;;;;;;4958498;29;20019;-84
2020/12/21 08:18:40;;;;;;;17.30;7.10;;;;;;;;;;4958819;29;20041;-85
2020/12/21 08:21:06;;;;;;;23.10;8.43;;;;;;;;;;4959563;29;20047;-85
2020/12/21 08:23:33;;;;;;;25.07;8.20;;;;;;;;;;4959982;29;20026;-84
2020/12/21 08:25:59;;;;;;;19.47;9.40;;;;;;;;;;4959478;29;20035;-84
2020/12/21 08:28:26;;;;;;;24.27;8.70;;;;;;;;;;4959680;29;20035;-85
2020/12/21 08:31:06;;;;;;;23.43;9.20;;;;;;;;;;4959924;29;20020;-85
2020/12/21 08:33:32;;;;;;;23.13;8.33;;;;;;;;;;4960048;29;20027;-85
2020/12/21 08:36:14;;;;;;;25.93;9.60;;;;;;;;;;4959956;29;20039;-84
2020/12/21 08:38:40;;;;;;;24.07;9.37;;;;;;;;;;4958728;29;20032;-84
2020/12/21 08:41:07;;;;;;;35.07;10.00;;;;;;;;;;4959413;29;20031;-84
2020/12/21 08:43:33;;;;;;;29.93;10.20;;;;;;;;;;4960277;29;20031;-84
2020/12/21 08:45:59;;;;;;;28.13;10.50;;;;;;;;;;4959517;29;20039;-85
2020/12/21 08:48:26;;;;;;;44.23;15.03;;;;;;;;;;4958083;29;20020;-84
2020/12/21 08:50:52;;;;;;;35.17;12.20;;;;;;;;;;4959726;29;20015;-84
2020/12/21 08:53:20;;;;;;;22.63;9.80;;;;;;;;;;4962115;29;20028;-84
2020/12/21 08:55:46;;;;;;;28.50;10.97;;;;;;;;;;4947614;29;20076;-84
2020/12/21 08:58:13;;;;;;;34.63;11.17;;;;;;;;;;4963975;29;20083;-82
2020/12/21 09:00:39;;;;;;;35.57;10.83;;;;;;;;;;4962584;29;20036;-84
2020/12/21 09:03:05;;;;;;;26.47;11.07;;;;;;;;;;4961936;29;20020;-83
2020/12/21 09:05:31;;;;;;;28.27;8.73;;;;;;;;;;4961607;29;20070;-84
2020/12/21 09:07:57;;;;;;;22.73;8.80;;;;;;;;;;4963497;29;20016;-84
2020/12/21 09:10:23;;;;;;;16.83;8.47;;;;;;;;;;4962424;29;20027;-84
2020/12/21 09:12:49;;;;;;;25.83;7.90;;;;;;;;;;4963421;29;20028;-84
2020/12/21 09:15:16;;;;;;;31.87;11.97;;;;;;;;;;4962952;29;20004;-84
2020/12/21 09:17:42;;;;;;;30.03;12.10;;;;;;;;;;4962570;29;20042;-85
2020/12/21 09:20:08;;;;;;;29.13;11.30;;;;;;;;;;4961196;29;20012;-84
2020/12/21 09:22:34;;;;;;;34.53;11.27;;;;;;;;;;4959945;29;20024;-81
2020/12/21 09:25:00;;;;;;;24.30;10.07;;;;;;;;;;4959114;29;20032;-83
2020/12/21 09:27:26;;;;;;;26.23;11.27;;;;;;;;;;4960942;29;20016;-83
2020/12/21 09:29:52;;;;;;;28.83;11.03;;;;;;;;;;4961448;29;20038;-84
2020/12/21 09:32:19;;;;;;;40.27;14.07;;;;;;;;;;4963174;29;20063;-84
2020/12/21 09:34:45;;;;;;;13.70;4.63;;;;;;;;;;4962146;29;20035;-83
2020/12/21 09:37:14;;;;;;;31.87;12.80;;;;;;;;;;4963044;29;20047;-84
2020/12/21 09:39:40;;;;;;;35.43;13.60;;;;;;;;;;4961426;29;20034;-82
2020/12/21 09:42:07;;;;;;;35.47;12.67;;;;;;;;;;4961931;29;20035;-84
2020/12/21 09:44:33;;;;;;;35.13;13.73;;;;;;;;;;4959220;29;20043;-84
2020/12/21 09:46:59;;;;;;;35.43;13.77;;;;;;;;;;4960597;29;20091;-83
2020/12/21 09:49:25;;;;;;;39.00;14.47;;;;;;;;;;4961403;29;20024;-82
2020/12/21 09:51:51;;;;;;;30.23;14.40;;;;;;;;;;4961181;29;20012;-83
2020/12/21 09:54:18;;;;;;;37.00;14.40;;;;;;;;;;4961358;29;20039;-83
2020/12/21 09:56:48;;;;;;;43.67;18.23;;;;;;;;;;4962104;29;20063;-83
2020/12/21 09:59:14;;;;;;;44.67;17.17;;;;;;;;;;4963490;29;20027;-84
2020/12/21 10:01:40;;;;;;;40.20;16.90;;;;;;;;;;4963457;29;20063;-85
2020/12/21 10:04:07;;;;;;;34.43;17.00;;;;;;;;;;4962564;29;20040;-85
2020/12/21 10:06:33;;;;;;;38.30;15.47;;;;;;;;;;4962180;29;20120;-84
2020/12/21 10:08:59;;;;;;;42.23;16.47;;;;;;;;;;4963188;29;20106;-85
2020/12/21 10:11:26;;;;;;;41.03;14.77;;;;;;;;;;5003460;23;20046;-85
2020/12/21 10:13:52;;;;;;;35.70;14.70;;;;;;;;;;4962636;29;20083;-84
2020/12/21 10:16:25;;;;;;;36.80;14.70;;;;;;;;;;4961161;29;20043;-84
2020/12/21 10:18:52;;;;;;;30.30;10.43;;;;;;;;;;4945333;29;20039;-85
2020/12/21 10:21:18;;;;;;;34.37;12.37;;;;;;;;;;4959769;29;20055;-83
2020/12/21 10:23:44;;;;;;;32.30;10.90;;;;;;;;;;4962561;29;20043;-83
2020/12/21 10:26:10;;;;;;;31.67;12.50;;;;;;;;;;4960775;29;20035;-83
2020/12/21 10:28:36;;;;;;;28.90;9.77;;;;;;;;;;4960925;29;20024;-82
2020/12/21 10:31:02;;;;;;;22.50;8.87;;;;;;;;;;4960601;29;20022;-83
2020/12/21 10:33:28;;;;;;;27.70;10.97;;;;;;;;;;4960779;29;20079;-83
2020/12/21 10:35:55;;;;;;;28.97;10.40;;;;;;;;;;4955863;29;20035;-82
2020/12/21 10:38:21;;;;;;;21.90;9.87;;;;;;;;;;4954459;29;20079;-81
2020/12/21 10:40:47;;;;;;;30.43;9.73;;;;;;;;;;4955442;29;20063;-82
2020/12/21 10:43:16;;;;;;;16.67;7.33;;;;;;;;;;4957573;29;20039;-82
2020/12/21 10:45:42;;;;;;;22.77;8.90;;;;;;;;;;4959599;29;20020;-83
2020/12/21 10:48:08;;;;;;;46.03;11.60;;;;;;;;;;4957544;29;20024;-81
2020/12/21 10:50:34;;;;;;;22.83;9.53;;;;;;;;;;4959895;29;20107;-83
2020/12/21 10:53:00;;;;;;;23.40;8.27;;;;;;;;;;4959302;29;20032;-82
2020/12/21 10:55:26;;;;;;;4.47;2.07;;;;;;;;;;4959556;29;20038;-84
2020/12/21 10:57:53;;;;;;;19.30;7.37;;;;;;;;;;4961359;29;20031;-85
2020/12/21 11:00:19;;;;;;;13.80;5.80;;;;;;;;;;4960994;29;20016;-85
2020/12/21 11:02:47;;;;;;;21.67;7.57;;;;;;;;;;4960985;29;20028;-84
2020/12/21 11:05:13;;;;;;;16.43;6.57;;;;;;;;;;4959899;29;20008;-84
2020/12/21 11:07:39;;;;;;;19.20;7.73;;;;;;;;;;4961762;29;20091;-84
2020/12/21 11:10:08;;;;;;;26.63;7.73;;;;;;;;;;4959669;29;20035;-83
2020/12/21 11:12:35;;;;;;;26.20;8.83;;;;;;;;;;4961432;29;20082;-84
2020/12/21 11:15:07;;;;;;;26.27;8.00;;;;;;;;;;4960997;29;20028;-82
2020/12/21 11:17:33;;;;;;;21.10;7.40;;;;;;;;;;4959990;29;20104;-82
2020/12/21 11:19:59;;;;;;;20.30;9.53;;;;;;;;;;4959332;29;20034;-84
2020/12/21 11:22:26;;;;;;;30.80;10.03;;;;;;;;;;4959029;29;20051;-83
2020/12/21 11:24:52;;;;;;;21.13;8.70;;;;;;;;;;4958640;29;20026;-83
2020/12/21 11:27:18;;;;;;;22.57;8.60;;;;;;;;;;4959045;29;20012;-83
2020/12/21 11:29:44;;;;;;;9.77;3.33;;;;;;;;;;4960312;29;20028;-84
2020/12/21 11:32:10;;;;;;;21.97;7.27;;;;;;;;;;4957683;29;20043;-82
2020/12/21 11:34:38;;;;;;;20.97;7.30;;;;;;;;;;4957356;29;20047;-82
2020/12/21 11:37:05;;;;;;;18.30;4.87;;;;;;;;;;4958583;29;20032;-82
2020/12/21 11:39:31;;;;;;;17.67;4.43;;;;;;;;;;4958816;29;20024;-82
2020/12/21 11:41:57;;;;;;;20.77;4.83;;;;;;;;;;4961924;29;20047;-84
2020/12/21 11:44:23;;;;;;;13.63;3.87;;;;;;;;;;4960107;29;20063;-83
2020/12/21 11:46:49;;;;;;;16.93;4.80;;;;;;;;;;4960221;29;20023;-82
2020/12/21 11:49:15;;;;;;;8.73;3.40;;;;;;;;;;4960660;29;20054;-84
2020/12/21 11:51:41;;;;;;;3.87;1.60;;;;;;;;;;4960012;29;20036;-83
2020/12/21 11:54:08;;;;;;;18.93;6.03;;;;;;;;;;4960874;29;20031;-83
2020/12/21 11:56:34;;;;;;;18.00;4.10;;;;;;;;;;4959068;29;20043;-81
2020/12/21 11:59:00;;;;;;;10.23;3.13;;;;;;;;;;4960833;29;20036;-84
2020/12/21 12:01:26;;;;;;;23.50;4.87;;;;;;;;;;4958875;29;20075;-82
2020/12/21 12:03:52;;;;;;;7.27;2.37;;;;;;;;;;4958095;29;20111;-82
2020/12/21 12:06:24;;;;;;;9.93;3.50;;;;;;;;;;4956326;29;20031;-82
2020/12/21 12:08:50;;;;;;;13.47;3.53;;;;;;;;;;4956327;29;20020;-82
2020/12/21 12:11:23;;;;;;;12.63;4.17;;;;;;;;;;4955258;29;20063;-84
2020/12/21 12:13:50;;;;;;;12.90;3.63;;;;;;;;;;4956856;29;20035;-82
2020/12/21 12:16:24;;;;;;;14.53;2.97;;;;;;;;;;4957655;29;20016;-81
2020/12/21 12:18:50;;;;;;;13.40;3.65;;;;;;;;;;4954742;29;20114;-82
2020/12/21 12:21:23;;;;;;;11.90;3.67;;;;;;;;;;4954260;29;20111;-82
2020/12/21 12:23:49;;;;;;;16.40;4.07;;;;;;;;;;4954379;29;20038;-81
2020/12/21 12:26:16;;;;;;;13.10;4.30;;;;;;;;;;4955441;29;20055;-80
2020/12/21 12:28:42;;;;;;;14.27;4.47;;;;;;;;;;4953542;29;20035;-80
2020/12/21 12:31:09;;;;;;;7.80;2.30;;;;;;;;;;4955117;29;20011;-80
2020/12/21 12:33:41;;;;;;;7.63;2.10;;;;;;;;;;4956140;29;20012;-83
2020/12/21 12:36:07;;;;;;;12.23;4.27;;;;;;;;;;4953675;29;20027;-80
2020/12/21 12:38:33;;;;;;;14.43;3.80;;;;;;;;;;4955556;29;20016;-81
2020/12/21 12:40:59;;;;;;;11.57;4.17;;;;;;;;;;4958059;29;20064;-82
2020/12/21 12:43:25;;;;;;;14.40;3.77;;;;;;;;;;4953230;29;20039;-79
2020/12/21 12:45:51;;;;;;;10.83;2.80;;;;;;;;;;4951218;29;20055;-80
2020/12/21 12:48:19;;;;;;;8.70;2.30;;;;;;;;;;4950042;29;20032;-80
2020/12/21 12:50:45;;;;;;;9.23;2.80;;;;;;;;;;4951459;29;20028;-82
2020/12/21 12:53:11;;;;;;;14.47;4.20;;;;;;;;;;4953977;29;20055;-81
2020/12/21 12:55:37;;;;;;;17.37;3.37;;;;;;;;;;4956009;29;20027;-82
2020/12/21 12:58:03;;;;;;;14.07;5.07;;;;;;;;;;4958820;29;20012;-81
2020/12/21 13:00:29;;;;;;;14.03;2.90;;;;;;;;;;4958831;29;20035;-81
2020/12/21 13:02:55;;;;;;;7.23;2.77;;;;;;;;;;4950467;29;20031;-82
2020/12/21 13:05:21;;;;;;;5.90;3.07;;;;;;;;;;4947072;29;20482;-81
2020/12/21 13:07:48;;;;;;;9.23;3.33;;;;;;;;;;4949350;29;20035;-81
2020/12/21 13:10:14;;;;;;;8.33;2.60;;;;;;;;;;4934711;29;20042;-81
2020/12/21 13:12:40;;;;;;;9.63;2.67;;;;;;;;;;4952851;29;20036;-80
2020/12/21 13:15:06;;;;;;;8.13;2.67;;;;;;;;;;4955497;29;20028;-80
2020/12/21 13:17:32;;;;;;;9.90;3.30;;;;;;;;;;4959595;29;20046;-82
2020/12/21 13:19:58;;;;;;;8.93;2.53;;;;;;;;;;4957709;29;20083;-80
2020/12/21 13:22:25;;;;;;;11.10;3.73;;;;;;;;;;4958177;29;20036;-81
2020/12/21 13:24:52;;;;;;;17.03;3.17;;;;;;;;;;4957561;29;20032;-82
2020/12/21 13:27:18;;;;;;;2.10;1.07;;;;;;;;;;4954719;29;20023;-82
2020/12/21 13:29:44;;;;;;;9.03;2.50;;;;;;;;;;4959305;29;20032;-82
2020/12/21 13:32:10;;;;;;;9.23;3.00;;;;;;;;;;4958207;29;20038;-82
2020/12/21 13:34:36;;;;;;;10.97;1.73;;;;;;;;;;4958095;29;20039;-85
2020/12/21 13:37:02;;;;;;;11.03;2.70;;;;;;;;;;4954503;29;20035;-82
2020/12/21 13:39:28;;;;;;;4.70;2.20;;;;;;;;;;4958952;29;20034;-82
2020/12/21 13:41:54;;;;;;;6.90;3.17;;;;;;;;;;4957765;29;20036;-82
2020/12/21 13:44:20;;;;;;;11.30;2.37;;;;;;;;;;4960236;29;20039;-81
2020/12/21 13:46:47;;;;;;;14.03;3.27;;;;;;;;;;4945451;29;20018;-83
2020/12/21 13:49:14;;;;;;;12.17;2.27;;;;;;;;;;4962230;29;20035;-81
2020/12/21 13:51:40;;;;;;;8.67;1.67;;;;;;;;;;4962769;29;20027;-82
2020/12/21 13:54:06;;;;;;;8.50;2.60;;;;;;;;;;4961730;29;20043;-81
2020/12/21 13:56:34;;;;;;;8.00;2.40;;;;;;;;;;4961384;29;20035;-81
2020/12/21 13:59:01;;;;;;;2.57;1.53;;;;;;;;;;4960552;29;20031;-81
2020/12/21 14:01:28;;;;;;;4.77;2.30;;;;;;;;;;4960420;29;20079;-80
2020/12/21 14:03:54;;;;;;;7.60;1.93;;;;;;;;;;4961224;29;20058;-81
2020/12/21 14:06:21;;;;;;;9.03;2.57;;;;;;;;;;4960387;29;20056;-81
2020/12/21 14:08:47;;;;;;;3.97;1.40;;;;;;;;;;4960837;29;20032;-82
2020/12/21 14:11:13;;;;;;;7.57;1.23;;;;;;;;;;4956849;29;20084;-81
2020/12/21 14:13:40;;;;;;;4.27;1.80;;;;;;;;;;4936606;29;20035;-82
2020/12/21 14:16:13;;;;;;;1.77;0.87;;;;;;;;;;4956271;29;20068;-81
2020/12/21 14:18:50;;;;;;;5.37;1.40;;;;;;;;;;4959404;29;20019;-81
2020/12/21 14:21:16;;;;;;;5.87;1.50;;;;;;;;;;4957731;29;20032;-82
2020/12/21 14:23:42;;;;;;;3.70;1.53;;;;;;;;;;4956312;29;20024;-83
2020/12/21 14:26:08;;;;;;;2.70;1.67;;;;;;;;;;4955284;29;20106;-81
2020/12/21 14:28:35;;;;;;;4.47;1.83;;;;;;;;;;4954619;29;20035;-82
2020/12/21 14:31:05;;;;;;;7.93;2.83;;;;;;;;;;4952787;29;20050;-81
2020/12/21 14:33:32;;;;;;;5.33;1.30;;;;;;;;;;4955647;29;20035;-81
2020/12/21 14:35:58;;;;;;;7.03;2.30;;;;;;;;;;4954458;29;20031;-81
2020/12/21 14:38:28;;;;;;;3.23;1.70;;;;;;;;;;4953947;29;20032;-83
2020/12/21 14:40:54;;;;;;;4.70;1.80;;;;;;;;;;4940317;29;20478;-82
2020/12/21 14:43:20;;;;;;;3.60;1.60;;;;;;;;;;4956863;29;20047;-81
2020/12/21 14:45:46;;;;;;;5.90;1.50;;;;;;;;;;4956990;29;20016;-81
2020/12/21 14:48:12;;;;;;;3.37;1.70;;;;;;;;;;4959249;29;20028;-81
2020/12/21 14:50:38;;;;;;;4.30;2.00;;;;;;;;;;4959936;29;20015;-81
2020/12/21 14:53:05;;;;;;;2.50;1.20;;;;;;;;;;4956558;29;20034;-81
2020/12/21 14:55:31;;;;;;;7.60;1.70;;;;;;;;;;4954040;29;20071;-80